sensor_id;sensor_type;location;lat;lon;timestamp;temperature;humidity
45283;DHT22;31023;44.994;1.796;2022-11-15T00:00:07;10.30;99.90
45283;DHT22;31023;44.994;1.796;2022-11-15T00:02:32;10.30;99.90
45283;DHT22;31023;44.994;1.796;2022-11-15T00:04:58;10.30;99.90
45283;DHT22;31023;44.994;1.796;2022-11-15T00:07:23;10.30;99.90
45283;DHT22;31023;44.994;1.796;2022-11-15T00:09:49;10.30;99.90
45283;DHT22;31023;44.994;1.796;2022-11-15T00:12:15;10.40;99.90
45283;DHT22;31023;44.994;1.796;2022-11-15T00:14:40;10.40;99.90
45283;DHT22;31023;44.994;1.796;2022-11-15T00:17:06;10.50;99.90
45283;DHT22;31023;44.994;1.796;2022-11-15T00:19:31;10.50;99.90
45283;DHT22;31023;44.994;1.796;2022-11-15T00:21:57;10.40;99.90
45283;DHT22;31023;44.994;1.796;2022-11-15T00:24:22;10.60;99.90
45283;DHT22;31023;44.994;1.796;2022-11-15T00:26:48;10.50;99.90
45283;DHT22;31023;44.994;1.796;2022-11-15T00:29:13;10.40;99.90
45283;DHT22;31023;44.994;1.796;2022-11-15T00:31:39;10.40;99.90
45283;DHT22;31023;44.994;1.796;2022-11-15T00:34:04;10.20;99.90
45283;DHT22;31023;44.994;1.796;2022-11-15T00:36:32;10.30;99.90
45283;DHT22;31023;44.994;1.796;2022-11-15T00:38:58;10.20;99.90
45283;DHT22;31023;44.994;1.796;2022-11-15T00:41:23;10.20;99.90
45283;DHT22;31023;44.994;1.796;2022-11-15T00:43:49;10.30;99.90
45283;DHT22;31023;44.994;1.796;2022-11-15T00:46:14;10.40;99.90
45283;DHT22;31023;44.994;1.796;2022-11-15T00:48:40;10.40;99.90
45283;DHT22;31023;44.994;1.796;2022-11-15T00:51:05;10.40;99.90
45283;DHT22;31023;44.994;1.796;2022-11-15T00:53:31;10.30;99.90
45283;DHT22;31023;44.994;1.796;2022-11-15T00:55:56;10.30;99.90
45283;DHT22;31023;44.994;1.796;2022-11-15T00:58:22;10.30;99.90
45283;DHT22;31023;44.994;1.796;2022-11-15T01:00:47;10.20;99.90
45283;DHT22;31023;44.994;1.796;2022-11-15T01:03:13;10.20;99.90
45283;DHT22;31023;44.994;1.796;2022-11-15T01:05:38;10.20;99.90
45283;DHT22;31023;44.994;1.796;2022-11-15T01:08:04;10.20;99.90
45283;DHT22;31023;44.994;1.796;2022-11-15T01:10:30;10.10;99.90
45283;DHT22;31023;44.994;1.796;2022-11-15T01:12:55;10.20;99.90
45283;DHT22;31023;44.994;1.796;2022-11-15T01:15:21;10.10;99.90
45283;DHT22;31023;44.994;1.796;2022-11-15T01:17:46;10.20;99.90
45283;DHT22;31023;44.994;1.796;2022-11-15T01:20:12;10.30;99.90
45283;DHT22;31023;44.994;1.796;2022-11-15T01:22:37;10.20;99.90
45283;DHT22;31023;44.994;1.796;2022-11-15T01:25:03;10.20;99.90
45283;DHT22;31023;44.994;1.796;2022-11-15T01:27:28;10.30;99.90
45283;DHT22;31023;44.994;1.796;2022-11-15T01:29:54;10.30;99.90
45283;DHT22;31023;44.994;1.796;2022-11-15T01:32:19;10.30;99.90
45283;DHT22;31023;44.994;1.796;2022-11-15T01:34:45;10.20;99.90
45283;DHT22;31023;44.994;1.796;2022-11-15T01:37:10;10.30;99.90
45283;DHT22;31023;44.994;1.796;2022-11-15T01:39:36;10.20;99.90
45283;DHT22;31023;44.994;1.796;2022-11-15T01:42:02;10.20;99.90
45283;DHT22;31023;44.994;1.796;2022-11-15T01:47:00;10.20;99.90
45283;DHT22;31023;44.994;1.796;2022-11-15T01:49:27;10.10;99.90
45283;DHT22;31023;44.994;1.796;2022-11-15T01:51:53;10.20;99.90
45283;DHT22;31023;44.994;1.796;2022-11-15T01:54:19;10.30;99.90
45283;DHT22;31023;44.994;1.796;2022-11-15T01:56:56;10.20;99.90
45283;DHT22;31023;44.994;1.796;2022-11-15T01:59:22;10.10;99.90
45283;DHT22;31023;44.994;1.796;2022-11-15T02:01:48;10.10;99.90
45283;DHT22;31023;44.994;1.796;2022-11-15T02:04:18;10.10;99.90
45283;DHT22;31023;44.994;1.796;2022-11-15T02:06:45;10.00;99.90
45283;DHT22;31023;44.994;1.796;2022-11-15T02:09:12;10.00;99.90
45283;DHT22;31023;44.994;1.796;2022-11-15T02:11:38;10.00;99.90
45283;DHT22;31023;44.994;1.796;2022-11-15T02:14:03;9.90;99.90
45283;DHT22;31023;44.994;1.796;2022-11-15T02:16:35;10.00;99.90
45283;DHT22;31023;44.994;1.796;2022-11-15T02:21:44;9.90;99.90
45283;DHT22;31023;44.994;1.796;2022-11-15T02:29:11;10.20;99.90
45283;DHT22;31023;44.994;1.796;2022-11-15T02:36:54;10.50;99.90
45283;DHT22;31023;44.994;1.796;2022-11-15T02:42:07;10.80;99.90
45283;DHT22;31023;44.994;1.796;2022-11-15T02:44:52;10.80;99.90
45283;DHT22;31023;44.994;1.796;2022-11-15T02:47:21;10.90;99.90
45283;DHT22;31023;44.994;1.796;2022-11-15T02:49:56;10.90;99.90
45283;DHT22;31023;44.994;1.796;2022-11-15T02:52:23;10.90;99.90
45283;DHT22;31023;44.994;1.796;2022-11-15T02:54:55;10.90;99.90
45283;DHT22;31023;44.994;1.796;2022-11-15T02:57:26;10.80;99.90
45283;DHT22;31023;44.994;1.796;2022-11-15T03:07:29;10.70;99.90
45283;DHT22;31023;44.994;1.796;2022-11-15T03:10:00;10.70;99.90
45283;DHT22;31023;44.994;1.796;2022-11-15T03:12:33;10.70;99.90
45283;DHT22;31023;44.994;1.796;2022-11-15T03:15:00;10.70;99.90
45283;DHT22;31023;44.994;1.796;2022-11-15T03:17:28;10.70;99.90
45283;DHT22;31023;44.994;1.796;2022-11-15T03:19:55;10.70;99.90
45283;DHT22;31023;44.994;1.796;2022-11-15T03:22:23;10.60;99.90
45283;DHT22;31023;44.994;1.796;2022-11-15T03:24:53;10.60;99.90
45283;DHT22;31023;44.994;1.796;2022-11-15T03:27:20;10.60;99.90
45283;DHT22;31023;44.994;1.796;2022-11-15T03:29:48;10.60;99.90
45283;DHT22;31023;44.994;1.796;2022-11-15T03:32:19;10.70;99.90
45283;DHT22;31023;44.994;1.796;2022-11-15T03:34:53;10.70;99.90
45283;DHT22;31023;44.994;1.796;2022-11-15T03:37:21;10.70;99.90
45283;DHT22;31023;44.994;1.796;2022-11-15T03:39:48;10.80;99.90
45283;DHT22;31023;44.994;1.796;2022-11-15T03:42:25;10.80;99.90
45283;DHT22;31023;44.994;1.796;2022-11-15T03:47:22;10.90;99.90
45283;DHT22;31023;44.994;1.796;2022-11-15T03:49:52;11.00;99.90
45283;DHT22;31023;44.994;1.796;2022-11-15T03:52:19;11.10;99.90
45283;DHT22;31023;44.994;1.796;2022-11-15T03:54:55;11.10;99.90
45283;DHT22;31023;44.994;1.796;2022-11-15T03:57:21;11.20;99.90
45283;DHT22;31023;44.994;1.796;2022-11-15T03:59:47;11.20;99.90
45283;DHT22;31023;44.994;1.796;2022-11-15T04:02:12;11.10;99.90
45283;DHT22;31023;44.994;1.796;2022-11-15T04:04:38;11.00;99.90
45283;DHT22;31023;44.994;1.796;2022-11-15T04:07:04;11.20;99.90
45283;DHT22;31023;44.994;1.796;2022-11-15T04:09:29;11.10;99.90
45283;DHT22;31023;44.994;1.796;2022-11-15T04:11:55;11.10;99.90
45283;DHT22;31023;44.994;1.796;2022-11-15T04:14:21;11.10;99.90
45283;DHT22;31023;44.994;1.796;2022-11-15T04:16:46;11.30;99.90
45283;DHT22;31023;44.994;1.796;2022-11-15T04:19:12;11.20;99.90
45283;DHT22;31023;44.994;1.796;2022-11-15T04:21:56;10.80;99.90
45283;DHT22;31023;44.994;1.796;2022-11-15T04:24:40;10.70;99.90
45283;DHT22;31023;44.994;1.796;2022-11-15T04:27:05;10.90;99.90
45283;DHT22;31023;44.994;1.796;2022-11-15T04:29:31;11.00;99.90
45283;DHT22;31023;44.994;1.796;2022-11-15T04:32:00;11.10;99.90
45283;DHT22;31023;44.994;1.796;2022-11-15T04:34:26;11.20;99.90
45283;DHT22;31023;44.994;1.796;2022-11-15T04:36:51;11.30;99.90
45283;DHT22;31023;44.994;1.796;2022-11-15T04:39:35;11.40;99.90
45283;DHT22;31023;44.994;1.796;2022-11-15T04:42:01;11.60;99.90
45283;DHT22;31023;44.994;1.796;2022-11-15T04:44:26;11.70;99.90
45283;DHT22;31023;44.994;1.796;2022-11-15T04:46:52;11.70;99.90
45283;DHT22;31023;44.994;1.796;2022-11-15T04:49:17;11.70;99.90
45283;DHT22;31023;44.994;1.796;2022-11-15T04:51:43;11.70;99.90
45283;DHT22;31023;44.994;1.796;2022-11-15T04:54:09;11.70;99.90
45283;DHT22;31023;44.994;1.796;2022-11-15T04:56:35;11.70;99.90
45283;DHT22;31023;44.994;1.796;2022-11-15T04:59:00;11.70;99.90
45283;DHT22;31023;44.994;1.796;2022-11-15T05:01:26;11.70;99.90
45283;DHT22;31023;44.994;1.796;2022-11-15T05:03:51;11.70;99.90
45283;DHT22;31023;44.994;1.796;2022-11-15T05:06:35;11.80;99.90
45283;DHT22;31023;44.994;1.796;2022-11-15T05:09:01;11.80;99.90
45283;DHT22;31023;44.994;1.796;2022-11-15T05:11:26;11.80;99.90
45283;DHT22;31023;44.994;1.796;2022-11-15T05:13:52;11.80;99.90
45283;DHT22;31023;44.994;1.796;2022-11-15T05:16:18;11.70;99.90
45283;DHT22;31023;44.994;1.796;2022-11-15T05:18:43;11.70;99.90
45283;DHT22;31023;44.994;1.796;2022-11-15T05:21:11;11.70;99.90
45283;DHT22;31023;44.994;1.796;2022-11-15T05:23:37;11.70;99.90
45283;DHT22;31023;44.994;1.796;2022-11-15T05:26:03;11.70;99.90
45283;DHT22;31023;44.994;1.796;2022-11-15T05:28:29;11.80;99.90
45283;DHT22;31023;44.994;1.796;2022-11-15T05:31:02;11.90;99.90
45283;DHT22;31023;44.994;1.796;2022-11-15T05:33:27;12.00;99.90
45283;DHT22;31023;44.994;1.796;2022-11-15T05:36:04;11.90;99.90
45283;DHT22;31023;44.994;1.796;2022-11-15T05:38:30;11.80;99.90
45283;DHT22;31023;44.994;1.796;2022-11-15T05:40:55;11.90;99.90
45283;DHT22;31023;44.994;1.796;2022-11-15T05:43:21;11.90;99.90
45283;DHT22;31023;44.994;1.796;2022-11-15T05:45:47;11.90;99.90
45283;DHT22;31023;44.994;1.796;2022-11-15T05:48:13;12.00;99.90
45283;DHT22;31023;44.994;1.796;2022-11-15T05:50:39;12.00;99.90
45283;DHT22;31023;44.994;1.796;2022-11-15T05:53:06;12.00;99.90
45283;DHT22;31023;44.994;1.796;2022-11-15T05:55:32;11.90;99.90
45283;DHT22;31023;44.994;1.796;2022-11-15T05:57:58;11.90;99.90
45283;DHT22;31023;44.994;1.796;2022-11-15T06:00:23;12.00;99.90
45283;DHT22;31023;44.994;1.796;2022-11-15T06:02:49;11.90;99.90
45283;DHT22;31023;44.994;1.796;2022-11-15T06:05:14;11.90;99.90
45283;DHT22;31023;44.994;1.796;2022-11-15T06:07:40;12.00;99.90
45283;DHT22;31023;44.994;1.796;2022-11-15T06:10:06;12.00;99.90
45283;DHT22;31023;44.994;1.796;2022-11-15T06:12:31;12.00;99.90
45283;DHT22;31023;44.994;1.796;2022-11-15T06:14:57;12.00;99.90
45283;DHT22;31023;44.994;1.796;2022-11-15T06:17:22;12.00;99.90
45283;DHT22;31023;44.994;1.796;2022-11-15T06:19:48;12.10;99.90
45283;DHT22;31023;44.994;1.796;2022-11-15T06:22:13;12.00;99.90
45283;DHT22;31023;44.994;1.796;2022-11-15T06:24:39;12.00;99.90
45283;DHT22;31023;44.994;1.796;2022-11-15T06:27:05;12.00;99.90
45283;DHT22;31023;44.994;1.796;2022-11-15T06:29:30;12.00;99.90
45283;DHT22;31023;44.994;1.796;2022-11-15T06:31:56;12.10;99.90
45283;DHT22;31023;44.994;1.796;2022-11-15T06:34:21;12.10;99.90
45283;DHT22;31023;44.994;1.796;2022-11-15T06:36:47;12.00;99.90
45283;DHT22;31023;44.994;1.796;2022-11-15T06:39:12;12.00;99.90
45283;DHT22;31023;44.994;1.796;2022-11-15T06:41:38;12.00;99.90
45283;DHT22;31023;44.994;1.796;2022-11-15T06:44:03;12.00;99.90
45283;DHT22;31023;44.994;1.796;2022-11-15T06:46:29;11.90;99.90
45283;DHT22;31023;44.994;1.796;2022-11-15T06:48:54;11.80;99.90
45283;DHT22;31023;44.994;1.796;2022-11-15T06:51:20;11.80;99.90
45283;DHT22;31023;44.994;1.796;2022-11-15T06:53:45;11.80;99.90
45283;DHT22;31023;44.994;1.796;2022-11-15T06:56:11;11.90;99.90
45283;DHT22;31023;44.994;1.796;2022-11-15T06:58:37;12.00;99.90
45283;DHT22;31023;44.994;1.796;2022-11-15T07:01:04;12.00;99.90
45283;DHT22;31023;44.994;1.796;2022-11-15T07:03:29;12.00;99.90
45283;DHT22;31023;44.994;1.796;2022-11-15T07:05:55;12.10;99.90
45283;DHT22;31023;44.994;1.796;2022-11-15T07:08:21;12.10;99.90
45283;DHT22;31023;44.994;1.796;2022-11-15T07:10:47;12.10;99.90
45283;DHT22;31023;44.994;1.796;2022-11-15T07:13:13;12.10;99.90
45283;DHT22;31023;44.994;1.796;2022-11-15T07:15:39;12.10;99.90
45283;DHT22;31023;44.994;1.796;2022-11-15T07:18:04;12.10;99.90
45283;DHT22;31023;44.994;1.796;2022-11-15T07:20:30;12.30;99.90
45283;DHT22;31023;44.994;1.796;2022-11-15T07:22:59;12.30;99.90
45283;DHT22;31023;44.994;1.796;2022-11-15T07:25:24;12.30;99.90
45283;DHT22;31023;44.994;1.796;2022-11-15T07:27:54;12.40;99.90
45283;DHT22;31023;44.994;1.796;2022-11-15T07:30:20;12.50;99.90
45283;DHT22;31023;44.994;1.796;2022-11-15T07:32:45;12.60;99.90
45283;DHT22;31023;44.994;1.796;2022-11-15T07:35:11;12.70;99.90
45283;DHT22;31023;44.994;1.796;2022-11-15T07:37:37;12.80;99.90
45283;DHT22;31023;44.994;1.796;2022-11-15T07:40:02;12.90;99.90
45283;DHT22;31023;44.994;1.796;2022-11-15T07:42:30;12.90;99.90
45283;DHT22;31023;44.994;1.796;2022-11-15T07:45:15;13.00;99.90
45283;DHT22;31023;44.994;1.796;2022-11-15T07:47:40;13.00;99.90
45283;DHT22;31023;44.994;1.796;2022-11-15T07:50:10;13.00;99.90
45283;DHT22;31023;44.994;1.796;2022-11-15T07:52:35;13.00;99.90
45283;DHT22;31023;44.994;1.796;2022-11-15T07:55:01;13.10;99.90
45283;DHT22;31023;44.994;1.796;2022-11-15T07:57:26;13.20;99.90
45283;DHT22;31023;44.994;1.796;2022-11-15T07:59:52;13.30;99.90
45283;DHT22;31023;44.994;1.796;2022-11-15T08:02:18;13.40;99.90
45283;DHT22;31023;44.994;1.796;2022-11-15T08:04:43;13.60;99.90
45283;DHT22;31023;44.994;1.796;2022-11-15T08:07:09;13.70;99.90
45283;DHT22;31023;44.994;1.796;2022-11-15T08:09:34;13.80;99.90
45283;DHT22;31023;44.994;1.796;2022-11-15T08:12:00;13.80;99.90
45283;DHT22;31023;44.994;1.796;2022-11-15T08:14:25;13.80;99.90
45283;DHT22;31023;44.994;1.796;2022-11-15T08:16:51;13.70;99.90
45283;DHT22;31023;44.994;1.796;2022-11-15T08:19:17;13.60;99.90
45283;DHT22;31023;44.994;1.796;2022-11-15T08:21:43;13.50;99.90
45283;DHT22;31023;44.994;1.796;2022-11-15T08:24:09;13.50;99.90
45283;DHT22;31023;44.994;1.796;2022-11-15T08:26:35;13.50;99.90
45283;DHT22;31023;44.994;1.796;2022-11-15T08:29:00;13.50;99.90
45283;DHT22;31023;44.994;1.796;2022-11-15T08:31:26;13.60;99.90
45283;DHT22;31023;44.994;1.796;2022-11-15T08:33:52;13.70;99.90
45283;DHT22;31023;44.994;1.796;2022-11-15T08:36:17;13.80;99.90
45283;DHT22;31023;44.994;1.796;2022-11-15T08:38:43;13.90;99.90
45283;DHT22;31023;44.994;1.796;2022-11-15T08:41:41;13.90;99.90
45283;DHT22;31023;44.994;1.796;2022-11-15T08:44:01;14.00;99.90
45283;DHT22;31023;44.994;1.796;2022-11-15T08:46:26;14.10;99.90
45283;DHT22;31023;44.994;1.796;2022-11-15T08:48:52;14.10;99.90
45283;DHT22;31023;44.994;1.796;2022-11-15T08:51:17;14.10;99.90
45283;DHT22;31023;44.994;1.796;2022-11-15T08:53:43;14.10;99.90
45283;DHT22;31023;44.994;1.796;2022-11-15T08:56:12;14.10;99.90
45283;DHT22;31023;44.994;1.796;2022-11-15T08:58:38;14.10;99.90
45283;DHT22;31023;44.994;1.796;2022-11-15T09:01:04;14.10;99.90
45283;DHT22;31023;44.994;1.796;2022-11-15T09:03:30;14.20;99.90
45283;DHT22;31023;44.994;1.796;2022-11-15T09:05:56;14.20;99.90
45283;DHT22;31023;44.994;1.796;2022-11-15T09:08:22;14.20;99.90
45283;DHT22;31023;44.994;1.796;2022-11-15T09:10:47;14.10;99.90
45283;DHT22;31023;44.994;1.796;2022-11-15T09:13:13;14.10;99.90
45283;DHT22;31023;44.994;1.796;2022-11-15T09:15:39;14.10;99.90
45283;DHT22;31023;44.994;1.796;2022-11-15T09:18:04;14.30;99.90
45283;DHT22;31023;44.994;1.796;2022-11-15T09:20:30;14.40;99.90
45283;DHT22;31023;44.994;1.796;2022-11-15T09:23:00;14.60;99.90
45283;DHT22;31023;44.994;1.796;2022-11-15T09:25:26;14.90;99.90
45283;DHT22;31023;44.994;1.796;2022-11-15T09:27:51;15.30;99.90
45283;DHT22;31023;44.994;1.796;2022-11-15T09:30:17;15.20;99.90
45283;DHT22;31023;44.994;1.796;2022-11-15T09:32:42;15.50;99.90
45283;DHT22;31023;44.994;1.796;2022-11-15T09:35:08;15.70;99.90
45283;DHT22;31023;44.994;1.796;2022-11-15T09:37:33;15.50;99.90
45283;DHT22;31023;44.994;1.796;2022-11-15T09:39:59;15.30;99.90
45283;DHT22;31023;44.994;1.796;2022-11-15T09:50:00;15.20;99.90
45283;DHT22;31023;44.994;1.796;2022-11-15T09:52:27;15.10;99.90
45283;DHT22;31023;44.994;1.796;2022-11-15T09:54:53;15.00;99.90
45283;DHT22;31023;44.994;1.796;2022-11-15T09:57:32;15.20;99.90
45283;DHT22;31023;44.994;1.796;2022-11-15T09:59:59;15.20;99.90
45283;DHT22;31023;44.994;1.796;2022-11-15T10:03:12;15.20;99.90
45283;DHT22;31023;44.994;1.796;2022-11-15T10:05:14;15.10;99.90
45283;DHT22;31023;44.994;1.796;2022-11-15T10:12:43;15.20;99.90
45283;DHT22;31023;44.994;1.796;2022-11-15T10:15:11;15.20;99.90
45283;DHT22;31023;44.994;1.796;2022-11-15T10:20:26;15.30;99.90
45283;DHT22;31023;44.994;1.796;2022-11-15T10:23:02;15.50;99.90
45283;DHT22;31023;44.994;1.796;2022-11-15T10:25:31;16.00;99.90
45283;DHT22;31023;44.994;1.796;2022-11-15T10:30:33;16.50;99.90
45283;DHT22;31023;44.994;1.796;2022-11-15T10:32:59;16.60;99.90
45283;DHT22;31023;44.994;1.796;2022-11-15T10:35:35;16.50;99.90
45283;DHT22;31023;44.994;1.796;2022-11-15T10:38:08;16.40;99.90
45283;DHT22;31023;44.994;1.796;2022-11-15T10:40:34;16.10;99.90
45283;DHT22;31023;44.994;1.796;2022-11-15T10:45:34;16.10;99.90
45283;DHT22;31023;44.994;1.796;2022-11-15T10:50:38;15.80;99.90
45283;DHT22;31023;44.994;1.796;2022-11-15T10:53:04;15.60;99.90
45283;DHT22;31023;44.994;1.796;2022-11-15T10:55:37;15.50;99.90
45283;DHT22;31023;44.994;1.796;2022-11-15T10:58:09;15.40;99.90
45283;DHT22;31023;44.994;1.796;2022-11-15T11:00:44;15.50;99.90
45283;DHT22;31023;44.994;1.796;2022-11-15T11:03:24;15.80;99.90
45283;DHT22;31023;44.994;1.796;2022-11-15T11:06:02;15.90;99.90
45283;DHT22;31023;44.994;1.796;2022-11-15T11:08:28;16.20;99.90
45283;DHT22;31023;44.994;1.796;2022-11-15T11:10:54;16.10;99.90
45283;DHT22;31023;44.994;1.796;2022-11-15T11:15:46;16.40;99.90
45283;DHT22;31023;44.994;1.796;2022-11-15T11:19:19;16.70;99.90
45283;DHT22;31023;44.994;1.796;2022-11-15T11:21:17;16.90;99.90
45283;DHT22;31023;44.994;1.796;2022-11-15T11:28:57;17.00;99.90
45283;DHT22;31023;44.994;1.796;2022-11-15T11:44:33;17.00;99.90
45283;DHT22;31023;44.994;1.796;2022-11-15T11:47:01;17.00;99.90
45283;DHT22;31023;44.994;1.796;2022-11-15T11:49:29;17.10;99.90
45283;DHT22;31023;44.994;1.796;2022-11-15T11:52:08;17.00;99.90
45283;DHT22;31023;44.994;1.796;2022-11-15T11:55:20;16.90;99.90
45283;DHT22;31023;44.994;1.796;2022-11-15T11:59:58;16.60;99.90
45283;DHT22;31023;44.994;1.796;2022-11-15T12:02:30;16.50;99.90
45283;DHT22;31023;44.994;1.796;2022-11-15T12:05:10;16.50;99.90
45283;DHT22;31023;44.994;1.796;2022-11-15T12:07:38;16.50;99.90
45283;DHT22;31023;44.994;1.796;2022-11-15T12:15:45;16.40;99.90
45283;DHT22;31023;44.994;1.796;2022-11-15T12:17:50;16.40;99.90
45283;DHT22;31023;44.994;1.796;2022-11-15T12:20:20;16.40;99.90
45283;DHT22;31023;44.994;1.796;2022-11-15T12:28:17;16.80;99.90
45283;DHT22;31023;44.994;1.796;2022-11-15T12:35:59;17.30;99.90
45283;DHT22;31023;44.994;1.796;2022-11-15T12:39:11;17.30;99.90
45283;DHT22;31023;44.994;1.796;2022-11-15T12:41:12;17.20;99.90
45283;DHT22;31023;44.994;1.796;2022-11-15T12:43:38;17.10;99.90
45283;DHT22;31023;44.994;1.796;2022-11-15T12:46:05;16.90;99.90
45283;DHT22;31023;44.994;1.796;2022-11-15T12:50:59;16.90;99.90
45283;DHT22;31023;44.994;1.796;2022-11-15T12:53:26;16.70;99.90
45283;DHT22;31023;44.994;1.796;2022-11-15T12:58:28;16.70;99.90
45283;DHT22;31023;44.994;1.796;2022-11-15T13:01:06;16.70;99.90
45283;DHT22;31023;44.994;1.796;2022-11-15T13:03:31;16.70;99.90
45283;DHT22;31023;44.994;1.796;2022-11-15T13:05:58;16.70;99.90
45283;DHT22;31023;44.994;1.796;2022-11-15T13:08:40;16.70;99.90
45283;DHT22;31023;44.994;1.796;2022-11-15T13:13:51;16.60;99.90
45283;DHT22;31023;44.994;1.796;2022-11-15T13:16:20;16.50;99.90
45283;DHT22;31023;44.994;1.796;2022-11-15T13:18:52;16.50;99.90
45283;DHT22;31023;44.994;1.796;2022-11-15T13:21:20;16.40;99.90
45283;DHT22;31023;44.994;1.796;2022-11-15T13:24:04;16.40;99.90
45283;DHT22;31023;44.994;1.796;2022-11-15T13:26:30;16.50;99.90
45283;DHT22;31023;44.994;1.796;2022-11-15T13:28:56;16.40;99.90
45283;DHT22;31023;44.994;1.796;2022-11-15T13:31:24;16.50;99.90
45283;DHT22;31023;44.994;1.796;2022-11-15T13:33:50;16.50;99.90
45283;DHT22;31023;44.994;1.796;2022-11-15T13:36:20;16.50;99.90
45283;DHT22;31023;44.994;1.796;2022-11-15T13:38:54;16.50;99.90
45283;DHT22;31023;44.994;1.796;2022-11-15T13:41:20;16.40;99.90
45283;DHT22;31023;44.994;1.796;2022-11-15T13:43:47;16.30;99.90
45283;DHT22;31023;44.994;1.796;2022-11-15T13:46:17;16.30;99.90
45283;DHT22;31023;44.994;1.796;2022-11-15T13:48:44;16.20;99.90
45283;DHT22;31023;44.994;1.796;2022-11-15T13:53:36;16.10;99.90
45283;DHT22;31023;44.994;1.796;2022-11-15T13:56:03;16.00;99.90
45283;DHT22;31023;44.994;1.796;2022-11-15T13:58:29;16.00;99.90
45283;DHT22;31023;44.994;1.796;2022-11-15T14:01:03;16.00;99.90
45283;DHT22;31023;44.994;1.796;2022-11-15T14:03:34;15.90;99.90
45283;DHT22;31023;44.994;1.796;2022-11-15T14:08:41;15.90;99.90
45283;DHT22;31023;44.994;1.796;2022-11-15T14:11:17;15.80;99.90
45283;DHT22;31023;44.994;1.796;2022-11-15T14:13:58;15.70;99.90
45283;DHT22;31023;44.994;1.796;2022-11-15T14:16:32;15.70;99.90
45283;DHT22;31023;44.994;1.796;2022-11-15T14:18:58;15.60;99.90
45283;DHT22;31023;44.994;1.796;2022-11-15T14:21:23;15.60;99.90
45283;DHT22;31023;44.994;1.796;2022-11-15T14:23:49;15.60;99.90
45283;DHT22;31023;44.994;1.796;2022-11-15T14:29:27;15.60;99.90
45283;DHT22;31023;44.994;1.796;2022-11-15T14:31:53;15.60;99.90
45283;DHT22;31023;44.994;1.796;2022-11-15T14:34:19;15.50;99.90
45283;DHT22;31023;44.994;1.796;2022-11-15T14:36:46;15.60;99.90
45283;DHT22;31023;44.994;1.796;2022-11-15T14:39:12;15.60;99.90
45283;DHT22;31023;44.994;1.796;2022-11-15T14:41:37;15.50;99.90
45283;DHT22;31023;44.994;1.796;2022-11-15T14:44:03;15.50;99.90
45283;DHT22;31023;44.994;1.796;2022-11-15T14:46:29;15.50;99.90
45283;DHT22;31023;44.994;1.796;2022-11-15T14:48:55;15.50;99.90
45283;DHT22;31023;44.994;1.796;2022-11-15T14:51:20;15.50;99.90
45283;DHT22;31023;44.994;1.796;2022-11-15T14:53:46;15.50;99.90
45283;DHT22;31023;44.994;1.796;2022-11-15T14:56:12;15.50;99.90
45283;DHT22;31023;44.994;1.796;2022-11-15T14:58:37;15.40;99.90
45283;DHT22;31023;44.994;1.796;2022-11-15T15:01:13;15.40;99.90
45283;DHT22;31023;44.994;1.796;2022-11-15T15:03:39;15.40;99.90
45283;DHT22;31023;44.994;1.796;2022-11-15T15:06:05;15.30;99.90
45283;DHT22;31023;44.994;1.796;2022-11-15T15:08:30;15.20;99.90
45283;DHT22;31023;44.994;1.796;2022-11-15T15:10:56;15.30;99.90
45283;DHT22;31023;44.994;1.796;2022-11-15T15:13:22;15.20;99.90
45283;DHT22;31023;44.994;1.796;2022-11-15T15:15:48;15.20;99.90
45283;DHT22;31023;44.994;1.796;2022-11-15T15:18:14;15.20;99.90
45283;DHT22;31023;44.994;1.796;2022-11-15T15:20:41;15.10;99.90
45283;DHT22;31023;44.994;1.796;2022-11-15T15:23:16;15.10;99.90
45283;DHT22;31023;44.994;1.796;2022-11-15T15:25:42;15.00;99.90
45283;DHT22;31023;44.994;1.796;2022-11-15T15:28:09;15.00;99.90
45283;DHT22;31023;44.994;1.796;2022-11-15T15:30:34;15.00;99.90
45283;DHT22;31023;44.994;1.796;2022-11-15T15:33:00;14.90;99.90
45283;DHT22;31023;44.994;1.796;2022-11-15T15:35:28;14.90;99.90
45283;DHT22;31023;44.994;1.796;2022-11-15T15:37:54;14.80;99.90
45283;DHT22;31023;44.994;1.796;2022-11-15T15:40:20;14.70;99.90
45283;DHT22;31023;44.994;1.796;2022-11-15T15:42:47;14.70;99.90
45283;DHT22;31023;44.994;1.796;2022-11-15T15:45:13;14.60;99.90
45283;DHT22;31023;44.994;1.796;2022-11-15T15:47:38;14.70;99.90
45283;DHT22;31023;44.994;1.796;2022-11-15T15:50:11;14.60;99.90
45283;DHT22;31023;44.994;1.796;2022-11-15T15:52:39;14.60;99.90
45283;DHT22;31023;44.994;1.796;2022-11-15T15:55:05;14.50;99.90
45283;DHT22;31023;44.994;1.796;2022-11-15T15:57:31;14.40;99.90
45283;DHT22;31023;44.994;1.796;2022-11-15T15:59:56;14.30;99.90
45283;DHT22;31023;44.994;1.796;2022-11-15T16:02:22;14.20;99.90
45283;DHT22;31023;44.994;1.796;2022-11-15T16:04:47;14.10;99.90
45283;DHT22;31023;44.994;1.796;2022-11-15T16:07:17;14.10;99.90
45283;DHT22;31023;44.994;1.796;2022-11-15T16:09:46;14.10;99.90
45283;DHT22;31023;44.994;1.796;2022-11-15T16:14:53;14.20;99.90
45283;DHT22;31023;44.994;1.796;2022-11-15T16:17:19;14.20;99.90
45283;DHT22;31023;44.994;1.796;2022-11-15T16:19:45;14.10;99.90
45283;DHT22;31023;44.994;1.796;2022-11-15T16:22:10;14.00;99.90
45283;DHT22;31023;44.994;1.796;2022-11-15T16:24:36;14.00;99.90
45283;DHT22;31023;44.994;1.796;2022-11-15T16:27:01;14.00;99.90
45283;DHT22;31023;44.994;1.796;2022-11-15T16:29:27;14.00;99.90
45283;DHT22;31023;44.994;1.796;2022-11-15T16:31:53;14.00;99.90
45283;DHT22;31023;44.994;1.796;2022-11-15T16:34:19;14.00;99.90
45283;DHT22;31023;44.994;1.796;2022-11-15T16:36:44;14.00;99.90
45283;DHT22;31023;44.994;1.796;2022-11-15T16:39:10;13.90;99.90
45283;DHT22;31023;44.994;1.796;2022-11-15T16:41:38;13.90;99.90
45283;DHT22;31023;44.994;1.796;2022-11-15T16:44:03;13.70;99.90
45283;DHT22;31023;44.994;1.796;2022-11-15T16:46:29;13.70;99.90
45283;DHT22;31023;44.994;1.796;2022-11-15T16:48:55;13.60;99.90
45283;DHT22;31023;44.994;1.796;2022-11-15T16:51:20;13.50;99.90
45283;DHT22;31023;44.994;1.796;2022-11-15T16:53:46;13.50;99.90
45283;DHT22;31023;44.994;1.796;2022-11-15T16:58:48;13.40;99.90
45283;DHT22;31023;44.994;1.796;2022-11-15T17:01:22;13.30;99.90
45283;DHT22;31023;44.994;1.796;2022-11-15T17:03:48;13.30;99.90
45283;DHT22;31023;44.994;1.796;2022-11-15T17:06:14;13.10;99.90
45283;DHT22;31023;44.994;1.796;2022-11-15T17:08:42;13.10;99.90
45283;DHT22;31023;44.994;1.796;2022-11-15T17:11:13;13.10;99.90
45283;DHT22;31023;44.994;1.796;2022-11-15T17:13:39;13.00;99.90
45283;DHT22;31023;44.994;1.796;2022-11-15T17:16:06;13.00;99.90
45283;DHT22;31023;44.994;1.796;2022-11-15T17:18:32;13.00;99.90
45283;DHT22;31023;44.994;1.796;2022-11-15T17:21:01;13.00;99.90
45283;DHT22;31023;44.994;1.796;2022-11-15T17:23:27;13.00;99.90